createdAt,value
2019-01-20T00:01:39.101Z,39.90
2019-01-20T00:04:10.728Z,38.17
2019-01-20T00:06:42.369Z,37.90
2019-01-20T00:09:14.005Z,35.87
2019-01-20T00:11:45.641Z,36.07
2019-01-20T00:14:17.282Z,37.77
2019-01-20T00:16:48.912Z,37.63
2019-01-20T00:19:20.566Z,36.47
2019-01-20T00:21:52.324Z,36.87
2019-01-20T00:24:24.044Z,36.57
2019-01-20T00:26:55.685Z,37.63
2019-01-20T00:29:27.303Z,37.40
2019-01-20T00:31:58.940Z,35.53
2019-01-20T00:34:30.561Z,35.97
2019-01-20T00:37:02.221Z,33.63
2019-01-20T00:39:33.833Z,34.27
2019-01-20T00:42:05.469Z,37.40
2019-01-20T00:44:37.096Z,34.97
2019-01-20T00:47:08.737Z,30.37
2019-01-20T00:49:40.362Z,33.50
2019-01-20T00:52:12.007Z,36.30
2019-01-20T00:54:43.643Z,35.07
2019-01-20T00:57:15.274Z,36.20
2019-01-20T00:59:46.896Z,37.20
2019-01-20T01:02:18.549Z,37.67
2019-01-20T01:04:50.196Z,35.73
2019-01-20T01:07:21.837Z,33.53
2019-01-20T01:09:53.474Z,34.57
2019-01-20T01:12:25.510Z,35.30
2019-01-20T01:14:57.153Z,33.97
2019-01-20T01:17:28.796Z,34.03
2019-01-20T01:20:00.423Z,36.30
2019-01-20T01:22:32.101Z,37.77
2019-01-20T01:25:04.916Z,35.23
2019-01-20T01:27:36.618Z,34.53
2019-01-20T01:30:17.064Z,36.40
2019-01-20T01:32:48.815Z,36.27
2019-01-20T01:35:20.562Z,36.40
2019-01-20T01:37:52.205Z,35.03
2019-01-20T01:40:23.834Z,35.70
2019-01-20T01:42:55.485Z,37.83
2019-01-20T01:45:27.110Z,36.83
2019-01-20T01:47:58.778Z,37.57
2019-01-20T01:50:30.409Z,35.03
2019-01-20T01:53:02.069Z,35.50
2019-01-20T01:55:33.709Z,36.43
2019-01-20T01:58:05.352Z,34.10
2019-01-20T02:00:37.094Z,38.73
2019-01-20T02:03:08.756Z,35.93
2019-01-20T02:05:40.481Z,34.63
2019-01-20T02:08:12.143Z,38.90
2019-01-20T02:10:43.762Z,36.83
2019-01-20T02:13:15.401Z,37.17
2019-01-20T02:15:47.145Z,35.03
2019-01-20T02:18:18.789Z,37.37
2019-01-20T02:20:50.497Z,36.90
2019-01-20T02:23:22.136Z,38.27
2019-01-20T02:25:53.781Z,36.00
2019-01-20T02:28:25.439Z,40.10
2019-01-20T02:30:57.077Z,39.90
2019-01-20T02:33:28.730Z,39.03
2019-01-20T02:36:00.349Z,36.30
2019-01-20T02:38:32.000Z,38.07
2019-01-20T02:41:03.635Z,38.13
2019-01-20T02:43:35.321Z,38.80
2019-01-20T02:46:06.953Z,35.33
2019-01-20T02:48:38.602Z,39.40
2019-01-20T02:51:10.248Z,37.80
2019-01-20T02:53:41.894Z,36.60
2019-01-20T02:56:13.627Z,38.87
2019-01-20T02:58:45.274Z,39.93
2019-01-20T03:01:16.909Z,38.43
2019-01-20T03:03:48.596Z,38.37
2019-01-20T03:06:20.325Z,39.20
2019-01-20T03:08:52.083Z,38.63
2019-01-20T03:11:23.720Z,40.83
2019-01-20T03:13:55.380Z,38.80
2019-01-20T03:16:27.005Z,38.73
2019-01-20T03:18:58.645Z,37.23
2019-01-20T03:21:30.288Z,37.57
2019-01-20T03:24:02.032Z,39.07
2019-01-20T03:26:33.765Z,36.43
2019-01-20T03:29:05.449Z,40.73
2019-01-20T03:31:37.185Z,37.07
2019-01-20T03:34:08.839Z,40.10
2019-01-20T03:36:40.705Z,38.00
2019-01-20T03:39:12.356Z,40.47
2019-01-20T03:41:43.990Z,38.17
2019-01-20T03:44:15.629Z,39.07
2019-01-20T03:46:48.372Z,40.93
2019-01-20T03:49:20.202Z,38.17
2019-01-20T03:51:51.823Z,35.80
2019-01-20T03:54:23.478Z,39.30
2019-01-20T03:56:55.095Z,39.10
2019-01-20T03:59:26.847Z,38.20
2019-01-20T04:01:58.482Z,36.80
2019-01-20T04:04:30.141Z,39.13
2019-01-20T04:07:01.769Z,38.47
2019-01-20T04:09:33.403Z,38.83
2019-01-20T04:12:05.141Z,39.30
2019-01-20T04:14:36.798Z,35.03
2019-01-20T04:17:08.412Z,37.20
2019-01-20T04:19:40.153Z,39.70
2019-01-20T04:22:11.805Z,38.60
2019-01-20T04:24:43.492Z,39.43
2019-01-20T04:27:15.126Z,38.13
2019-01-20T04:29:46.775Z,39.67
2019-01-20T04:32:18.413Z,40.77
2019-01-20T04:34:50.084Z,40.43
2019-01-20T04:37:21.702Z,38.93
2019-01-20T04:39:53.341Z,38.50
2019-01-20T04:42:29.161Z,36.03
2019-01-20T04:44:58.508Z,36.33
2019-01-20T04:47:30.150Z,38.70
2019-01-20T04:50:02.017Z,35.90
2019-01-20T04:52:33.679Z,39.03
2019-01-20T04:55:06.927Z,36.90
2019-01-20T04:57:38.742Z,37.90
2019-01-20T05:00:13.325Z,38.13
2019-01-20T05:02:44.968Z,38.00
2019-01-20T05:05:17.383Z,39.30
2019-01-20T05:07:49.102Z,35.90
2019-01-20T05:10:21.073Z,38.73
2019-01-20T05:12:52.718Z,38.63
2019-01-20T05:15:24.354Z,40.43
2019-01-20T05:17:55.998Z,35.33
2019-01-20T05:20:27.626Z,40.33
2019-01-20T05:22:59.280Z,40.70
2019-01-20T05:25:30.928Z,38.50
2019-01-20T05:28:02.869Z,35.17
2019-01-20T05:30:34.505Z,39.23
2019-01-20T05:33:06.441Z,37.50
2019-01-20T05:35:38.082Z,37.87
2019-01-20T05:38:09.719Z,40.37
2019-01-20T05:40:41.366Z,42.20
2019-01-20T05:43:12.992Z,38.47
2019-01-20T05:45:44.621Z,38.03
2019-01-20T05:48:16.494Z,36.00
2019-01-20T05:50:48.145Z,36.17
2019-01-20T05:53:19.765Z,38.27
2019-01-20T05:55:51.420Z,37.80
2019-01-20T05:58:23.042Z,38.73
2019-01-20T06:00:54.695Z,38.90
2019-01-20T06:03:26.325Z,37.47
2019-01-20T06:05:57.967Z,40.83
2019-01-20T06:08:29.589Z,39.93
2019-01-20T06:11:01.239Z,39.80
2019-01-20T06:13:32.871Z,40.60
2019-01-20T06:16:04.620Z,38.80
2019-01-20T06:18:36.274Z,37.50
2019-01-20T06:21:07.933Z,35.37
2019-01-20T06:23:39.606Z,39.00
2019-01-20T06:26:11.245Z,39.90
2019-01-20T06:28:42.870Z,38.87
2019-01-20T06:31:14.493Z,42.83
2019-01-20T06:33:46.128Z,36.50
2019-01-20T06:36:17.767Z,41.57
2019-01-20T06:38:49.416Z,40.57
2019-01-20T06:41:21.065Z,39.43
2019-01-20T06:43:52.692Z,40.70
2019-01-20T06:46:24.325Z,39.70
2019-01-20T06:48:56.052Z,37.10
2019-01-20T06:51:27.690Z,41.80
2019-01-20T06:53:59.318Z,41.10
2019-01-20T06:56:30.958Z,40.67
2019-01-20T06:59:02.702Z,42.43
2019-01-20T07:01:34.397Z,42.73
2019-01-20T07:04:06.031Z,40.27
2019-01-20T07:06:37.683Z,39.40
2019-01-20T07:09:09.307Z,40.37
2019-01-20T07:11:40.948Z,40.33
2019-01-20T07:14:12.592Z,40.03
2019-01-20T07:16:44.257Z,40.87
2019-01-20T07:19:15.886Z,38.03
2019-01-20T07:21:47.549Z,42.77
2019-01-20T07:24:19.220Z,42.60
2019-01-20T07:26:50.890Z,41.53
2019-01-20T07:29:22.541Z,42.27
2019-01-20T07:31:54.210Z,41.00
2019-01-20T07:34:27.459Z,43.23
2019-01-20T07:36:59.281Z,39.17
2019-01-20T07:39:31.030Z,41.30
2019-01-20T07:42:02.889Z,45.47
2019-01-20T07:44:34.526Z,43.00
2019-01-20T07:47:06.181Z,45.30
2019-01-20T07:49:37.809Z,41.00
2019-01-20T07:52:09.460Z,40.27
2019-01-20T07:54:41.091Z,46.93
2019-01-20T07:57:12.737Z,45.37
2019-01-20T07:59:44.368Z,41.73
2019-01-20T08:02:16.005Z,40.67
2019-01-20T08:04:47.635Z,37.33
2019-01-20T08:07:19.285Z,35.10
2019-01-20T08:09:50.951Z,30.80
2019-01-20T08:12:23.538Z,29.27
2019-01-20T08:14:55.467Z,28.37
2019-01-20T08:17:27.109Z,26.93
2019-01-20T08:19:58.769Z,26.57
2019-01-20T08:22:30.393Z,26.63
2019-01-20T08:25:02.126Z,26.40
2019-01-20T08:27:34.296Z,25.37
2019-01-20T08:30:08.517Z,26.17
2019-01-20T08:32:41.943Z,24.87
2019-01-20T08:35:21.038Z,26.10
2019-01-20T08:38:06.617Z,26.07
2019-01-20T08:40:38.246Z,23.77
2019-01-20T08:43:09.918Z,25.17
2019-01-20T08:46:44.658Z,24.17
2019-01-20T08:49:16.409Z,25.07
2019-01-20T08:51:48.181Z,25.03
2019-01-20T08:55:15.690Z,24.50
2019-01-20T08:57:47.393Z,24.47
2019-01-20T09:00:19.213Z,26.33
2019-01-20T09:02:50.826Z,24.47
2019-01-20T09:05:28.446Z,25.63
2019-01-20T09:08:00.168Z,24.57
2019-01-20T09:10:32.196Z,25.07
2019-01-20T09:13:07.549Z,25.43
2019-01-20T09:15:39.201Z,25.00
2019-01-20T09:18:10.848Z,26.53
2019-01-20T09:20:42.580Z,25.23
2019-01-20T09:23:14.335Z,25.97
2019-01-20T09:25:45.986Z,26.67
2019-01-20T09:28:17.619Z,26.50
2019-01-20T09:30:49.275Z,26.57
2019-01-20T09:33:24.653Z,26.63
2019-01-20T09:35:55.490Z,28.90
2019-01-20T09:38:27.118Z,26.20
2019-01-20T09:40:58.753Z,27.57
2019-01-20T09:43:30.391Z,26.67
2019-01-20T09:46:02.129Z,27.07
2019-01-20T09:48:33.740Z,27.80
2019-01-20T09:51:05.502Z,27.10
2019-01-20T09:53:37.132Z,28.83
2019-01-20T09:56:08.900Z,27.17
2019-01-20T09:58:40.516Z,28.80
2019-01-20T10:01:12.155Z,26.50
2019-01-20T10:03:43.794Z,26.87
2019-01-20T10:06:15.432Z,29.27
2019-01-20T10:08:47.073Z,27.50
2019-01-20T10:11:18.702Z,28.30
2019-01-20T10:13:54.797Z,28.80
2019-01-20T10:16:23.854Z,28.13
2019-01-20T10:18:55.486Z,28.97
2019-01-20T10:21:27.129Z,27.90
2019-01-20T10:23:58.771Z,27.67
2019-01-20T10:26:30.395Z,29.03
2019-01-20T10:29:02.025Z,27.50
2019-01-20T10:31:33.644Z,29.77
2019-01-20T10:34:05.275Z,27.13
2019-01-20T10:36:36.925Z,28.23
2019-01-20T10:39:10.617Z,28.20
2019-01-20T10:41:42.250Z,27.33
2019-01-20T10:44:13.869Z,29.03
2019-01-20T10:46:45.508Z,27.27
2019-01-20T10:49:17.130Z,28.33
2019-01-20T10:51:48.776Z,27.80
2019-01-20T10:54:20.389Z,27.57
2019-01-20T10:56:52.013Z,28.50
2019-01-20T10:59:23.624Z,28.97
2019-01-20T11:01:55.357Z,27.83
2019-01-20T11:04:26.970Z,26.93
2019-01-20T11:06:58.606Z,28.97
2019-01-20T11:09:30.225Z,28.37
2019-01-20T11:12:01.960Z,26.33
2019-01-20T11:14:33.617Z,26.30
2019-01-20T11:17:05.257Z,25.93
2019-01-20T11:19:36.888Z,25.10
2019-01-20T11:22:08.529Z,25.80
2019-01-20T11:24:40.165Z,26.17
2019-01-20T11:27:11.796Z,24.57
2019-01-20T11:29:43.415Z,24.60
2019-01-20T11:32:15.046Z,24.67
2019-01-20T11:34:46.669Z,26.13
2019-01-20T11:37:18.322Z,24.33
2019-01-20T11:39:49.962Z,24.33
2019-01-20T11:42:21.597Z,25.77
2019-01-20T11:44:53.233Z,24.53
2019-01-20T11:47:24.902Z,22.87
2019-01-20T11:49:56.520Z,22.73
2019-01-20T11:52:28.161Z,23.83
2019-01-20T11:54:59.812Z,24.67
2019-01-20T11:57:31.441Z,23.17
2019-01-20T12:00:04.954Z,24.10
2019-01-20T12:02:36.589Z,24.20
2019-01-20T12:05:09.541Z,22.20
2019-01-20T12:07:41.160Z,23.63
2019-01-20T12:10:13.053Z,21.83
2019-01-20T12:12:47.948Z,21.33
2019-01-20T12:15:19.574Z,19.70
2019-01-20T12:17:51.218Z,21.23
2019-01-20T12:20:22.952Z,21.87
2019-01-20T12:22:54.681Z,20.43
2019-01-20T12:25:26.358Z,20.97
2019-01-20T12:27:57.993Z,20.57
2019-01-20T12:30:31.519Z,21.07
2019-01-20T12:33:03.634Z,20.70
2019-01-20T12:35:35.362Z,21.80
2019-01-20T12:38:07.188Z,20.13
2019-01-20T12:40:46.288Z,19.87
2019-01-20T12:43:17.934Z,20.20
2019-01-20T12:45:49.658Z,19.87
2019-01-20T12:48:21.306Z,20.37
2019-01-20T12:50:52.926Z,19.07
2019-01-20T12:53:24.564Z,19.37
2019-01-20T12:55:56.193Z,21.07
2019-01-20T12:58:27.837Z,19.23
2019-01-20T13:00:59.600Z,19.67
2019-01-20T13:03:31.239Z,18.13
2019-01-20T13:06:03.170Z,17.83
2019-01-20T13:08:34.838Z,19.40
2019-01-20T13:11:06.496Z,18.73
2019-01-20T13:13:38.138Z,17.93
2019-01-20T13:16:09.875Z,17.47
2019-01-20T13:18:41.537Z,19.03
2019-01-20T13:21:13.672Z,19.47
2019-01-20T13:23:46.261Z,19.00
2019-01-20T13:26:17.905Z,17.33
2019-01-20T13:28:49.564Z,19.23
2019-01-20T13:31:21.189Z,18.73
2019-01-20T13:33:52.826Z,20.83
2019-01-20T13:36:24.444Z,16.50
2019-01-20T13:38:56.089Z,17.10
2019-01-20T13:41:29.485Z,18.13
2019-01-20T13:44:01.217Z,16.90
2019-01-20T13:46:32.858Z,15.47
2019-01-20T13:49:04.484Z,15.57
2019-01-20T13:51:36.121Z,17.43
2019-01-20T13:54:07.765Z,16.83
2019-01-20T13:56:39.396Z,15.80
2019-01-20T13:59:11.125Z,17.67
2019-01-20T14:01:42.758Z,14.63
2019-01-20T14:04:14.469Z,15.80
2019-01-20T14:06:46.108Z,15.60
2019-01-20T14:09:17.748Z,15.33
2019-01-20T14:11:49.391Z,14.30
2019-01-20T14:14:21.036Z,15.00
2019-01-20T14:16:52.668Z,15.77
2019-01-20T14:19:24.319Z,15.17
2019-01-20T14:21:55.946Z,14.73
2019-01-20T14:24:27.600Z,15.80
2019-01-20T14:26:59.325Z,16.77
2019-01-20T14:29:30.965Z,17.90
2019-01-20T14:32:02.853Z,16.97
2019-01-20T14:34:34.546Z,17.40
2019-01-20T14:37:06.161Z,17.77
2019-01-20T14:39:37.801Z,18.97
2019-01-20T14:42:09.416Z,17.50
2019-01-20T14:44:41.045Z,17.93
2019-01-20T14:47:12.681Z,19.03
2019-01-20T14:49:44.408Z,18.97
2019-01-20T14:52:16.052Z,22.37
2019-01-20T14:54:47.692Z,22.43
2019-01-20T14:57:19.331Z,21.90
2019-01-20T14:59:50.977Z,21.60
2019-01-20T15:02:22.612Z,21.70
2019-01-20T15:04:54.384Z,21.83
2019-01-20T15:07:26.025Z,21.83
2019-01-20T15:09:57.674Z,23.80
2019-01-20T15:12:29.348Z,25.67
2019-01-20T15:15:01.049Z,29.23
2019-01-20T15:17:32.688Z,24.77
2019-01-20T15:20:05.833Z,26.70
2019-01-20T15:22:37.463Z,26.80
2019-01-20T15:25:10.198Z,26.07
2019-01-20T15:27:42.066Z,25.70
2019-01-20T15:30:17.804Z,27.33
2019-01-20T15:32:50.754Z,22.40
2019-01-20T15:35:22.399Z,23.47
2019-01-20T15:37:54.150Z,28.60
2019-01-20T15:40:26.132Z,35.23
2019-01-20T15:42:57.761Z,38.67
2019-01-20T15:45:29.621Z,43.30
2019-01-20T15:48:01.242Z,42.63
2019-01-20T15:50:32.915Z,38.73
2019-01-20T15:53:04.543Z,32.50
2019-01-20T15:55:36.341Z,35.47
2019-01-20T15:58:08.089Z,34.73
2019-01-20T16:00:39.744Z,40.53
2019-01-20T16:03:11.476Z,38.60
2019-01-20T16:05:43.134Z,34.03
2019-01-20T16:08:14.786Z,34.00
2019-01-20T16:10:46.429Z,32.73
2019-01-20T16:13:18.061Z,33.40
2019-01-20T16:15:49.704Z,32.73
2019-01-20T16:18:21.333Z,36.53
2019-01-20T16:20:52.974Z,34.17
2019-01-20T16:23:24.601Z,34.67
2019-01-20T16:25:56.244Z,35.20
2019-01-20T16:28:27.876Z,35.47
2019-01-20T16:30:59.533Z,38.07
2019-01-20T16:33:31.174Z,34.83
2019-01-20T16:36:03.120Z,32.20
2019-01-20T16:38:34.758Z,33.87
2019-01-20T16:41:06.410Z,35.80
2019-01-20T16:43:38.094Z,32.40
2019-01-20T16:46:09.727Z,35.90
2019-01-20T16:48:41.378Z,35.20
2019-01-20T16:51:13.029Z,33.67
2019-01-20T16:53:44.690Z,31.17
2019-01-20T16:56:16.329Z,35.67
2019-01-20T16:58:51.425Z,37.30
2019-01-20T17:01:21.633Z,32.33
2019-01-20T17:03:53.331Z,36.80
2019-01-20T17:06:25.162Z,34.80
2019-01-20T17:08:56.806Z,38.20
2019-01-20T17:11:28.564Z,36.87
2019-01-20T17:14:00.186Z,38.73
2019-01-20T17:16:31.829Z,39.90
2019-01-20T17:19:03.578Z,44.70
2019-01-20T17:21:35.233Z,44.93
2019-01-20T17:24:09.106Z,44.17
2019-01-20T17:26:40.770Z,46.40
2019-01-20T17:29:12.442Z,48.47
2019-01-20T17:31:44.111Z,46.13
2019-01-20T17:34:15.745Z,48.83
2019-01-20T17:36:47.406Z,50.83
2019-01-20T17:39:19.052Z,50.60
2019-01-20T17:41:50.695Z,49.17
2019-01-20T17:44:22.327Z,49.57
2019-01-20T17:46:53.972Z,47.20
2019-01-20T17:49:25.613Z,46.70
2019-01-20T17:51:57.270Z,43.53
2019-01-20T17:54:28.915Z,43.60
2019-01-20T17:57:00.563Z,42.50
2019-01-20T17:59:32.193Z,43.73
2019-01-20T18:02:04.073Z,42.73
2019-01-20T18:04:35.710Z,39.70
2019-01-20T18:07:07.405Z,41.73
2019-01-20T18:09:39.038Z,38.57
2019-01-20T18:12:10.690Z,38.20
2019-01-20T18:14:42.335Z,35.50
2019-01-20T18:17:13.989Z,38.20
2019-01-20T18:19:45.638Z,36.60
2019-01-20T18:22:17.301Z,39.73
2019-01-20T18:24:50.054Z,38.60
2019-01-20T18:27:21.734Z,37.53
2019-01-20T18:29:53.485Z,44.00
2019-01-20T18:32:25.160Z,47.00
2019-01-20T18:34:56.825Z,46.90
2019-01-20T18:37:28.456Z,43.63
2019-01-20T18:40:01.449Z,56.23
2019-01-20T18:42:33.130Z,56.30
2019-01-20T18:45:05.802Z,53.43
2019-01-20T18:47:37.466Z,48.23
2019-01-20T18:50:11.382Z,49.90
2019-01-20T18:52:43.033Z,40.43
2019-01-20T18:55:14.748Z,39.27
2019-01-20T18:57:46.528Z,40.43
2019-01-20T19:00:23.413Z,42.03
2019-01-20T19:02:55.253Z,41.63
2019-01-20T19:05:27.023Z,43.67
2019-01-20T19:07:58.701Z,46.93
2019-01-20T19:10:30.463Z,43.23
2019-01-20T19:13:02.418Z,43.43
2019-01-20T19:15:34.086Z,42.67
2019-01-20T19:18:05.827Z,44.77
2019-01-20T19:20:37.522Z,37.70
2019-01-20T19:23:09.179Z,39.90
2019-01-20T19:25:40.859Z,37.60
2019-01-20T19:28:13.552Z,39.40
2019-01-20T19:30:45.221Z,36.90
2019-01-20T19:33:16.885Z,37.40
2019-01-20T19:35:48.654Z,37.50
2019-01-20T19:38:20.421Z,45.40
2019-01-20T19:40:52.126Z,51.97
2019-01-20T19:43:24.555Z,47.43
2019-01-20T19:45:56.460Z,43.13
2019-01-20T19:48:28.146Z,41.70
2019-01-20T19:51:02.155Z,47.00
2019-01-20T19:53:34.067Z,44.40
2019-01-20T19:56:05.814Z,41.60
2019-01-20T19:58:37.487Z,43.80
2019-01-20T20:01:10.424Z,42.93
2019-01-20T20:03:42.095Z,44.00
2019-01-20T20:06:13.989Z,44.97
2019-01-20T20:08:45.674Z,41.27
2019-01-20T20:11:17.359Z,41.00
2019-01-20T20:13:49.278Z,41.07
2019-01-20T20:16:23.468Z,38.60
2019-01-20T20:18:56.994Z,37.20
2019-01-20T20:21:28.689Z,42.40
2019-01-20T20:24:02.742Z,44.10
2019-01-20T20:26:34.432Z,42.03
2019-01-20T20:29:06.332Z,46.77
2019-01-20T20:31:38.012Z,44.57
2019-01-20T20:34:12.385Z,46.57
2019-01-20T20:36:44.071Z,44.50
2019-01-20T20:39:15.832Z,41.17
2019-01-20T20:41:47.744Z,41.57
2019-01-20T20:44:19.733Z,36.57
2019-01-20T20:46:51.403Z,43.37
2019-01-20T20:49:23.075Z,42.00
2019-01-20T20:51:54.970Z,43.10
2019-01-20T20:54:26.636Z,44.00
2019-01-20T20:56:58.287Z,44.97
2019-01-20T20:59:29.955Z,41.47
2019-01-20T21:02:01.608Z,44.90
2019-01-20T21:04:34.559Z,40.90
2019-01-20T21:07:06.212Z,45.33
2019-01-20T21:09:37.869Z,43.23
2019-01-20T21:12:09.525Z,42.40
2019-01-20T21:14:41.210Z,43.90
2019-01-20T21:17:12.914Z,45.30
2019-01-20T21:19:44.584Z,38.77
2019-01-20T21:22:16.334Z,38.70
2019-01-20T21:24:48.009Z,39.70
2019-01-20T21:27:19.657Z,40.40
2019-01-20T21:29:51.302Z,40.00
2019-01-20T21:32:22.933Z,38.40
2019-01-20T21:34:54.626Z,39.83
2019-01-20T21:37:26.256Z,40.23
2019-01-20T21:39:57.933Z,36.93
2019-01-20T21:42:29.572Z,34.70
2019-01-20T21:45:01.258Z,37.93
2019-01-20T21:47:32.955Z,36.47
2019-01-20T21:50:08.496Z,37.53
2019-01-20T21:52:40.243Z,38.00
2019-01-20T21:55:11.878Z,36.13
2019-01-20T21:57:43.502Z,37.00
2019-01-20T22:00:20.184Z,37.00
2019-01-20T22:02:51.821Z,38.37
2019-01-20T22:05:23.559Z,38.63
2019-01-20T22:07:55.192Z,40.13
2019-01-20T22:10:26.837Z,37.93
2019-01-20T22:12:58.581Z,37.07
2019-01-20T22:15:30.221Z,35.60
2019-01-20T22:18:03.129Z,34.43
2019-01-20T22:20:35.006Z,36.87
2019-01-20T22:23:06.637Z,36.27
2019-01-20T22:25:38.274Z,36.40
2019-01-20T22:28:15.661Z,37.00
2019-01-20T22:30:47.364Z,35.50
2019-01-20T22:33:19.002Z,36.10
2019-01-20T22:35:50.656Z,35.37
2019-01-20T22:38:22.292Z,37.33
2019-01-20T22:40:53.949Z,34.97
2019-01-20T22:43:25.574Z,37.33
2019-01-20T22:45:57.207Z,34.90
2019-01-20T22:48:28.835Z,38.20
2019-01-20T22:51:00.476Z,37.17
2019-01-20T22:53:32.113Z,38.07
2019-01-20T22:56:03.856Z,36.73
2019-01-20T22:58:35.499Z,34.53
2019-01-20T23:01:15.435Z,38.27
2019-01-20T23:03:47.053Z,34.77
2019-01-20T23:06:18.698Z,33.20
2019-01-20T23:08:50.324Z,31.20
2019-01-20T23:11:21.957Z,32.73
2019-01-20T23:13:53.603Z,33.53
2019-01-20T23:16:25.341Z,34.47
2019-01-20T23:18:56.969Z,33.47
2019-01-20T23:21:28.798Z,36.03
2019-01-20T23:24:00.422Z,35.30
2019-01-20T23:26:32.054Z,34.63
2019-01-20T23:29:03.831Z,33.10
2019-01-20T23:31:35.477Z,31.93
2019-01-20T23:34:07.108Z,33.13
2019-01-20T23:36:38.759Z,33.40
2019-01-20T23:39:10.387Z,33.10
2019-01-20T23:41:42.014Z,34.07
2019-01-20T23:44:13.642Z,33.30
2019-01-20T23:46:45.301Z,32.60
2019-01-20T23:49:16.921Z,32.23
2019-01-20T23:51:48.601Z,30.93
2019-01-20T23:54:20.306Z,34.20
2019-01-20T23:56:51.949Z,34.47
2019-01-20T23:59:23.565Z,35.33
